createdAt,value
2024-05-09T00:00:06.000Z,81.85
2024-05-09T00:01:06.000Z,81.56
2024-05-09T00:02:05.000Z,82.23
2024-05-09T00:03:06.000Z,82.13
2024-05-09T00:04:06.000Z,82.00
2024-05-09T00:05:08.000Z,82.24
2024-05-09T00:06:07.000Z,82.36
2024-05-09T00:07:05.000Z,82.66
2024-05-09T00:08:07.000Z,83.58
2024-05-09T00:09:05.000Z,83.24
2024-05-09T00:10:06.000Z,82.97
2024-05-09T00:11:05.000Z,82.50
2024-05-09T00:12:05.000Z,82.61
2024-05-09T00:13:06.000Z,82.71
2024-05-09T00:14:05.000Z,82.80
2024-05-09T00:15:06.000Z,82.98
2024-05-09T00:16:06.000Z,83.05
2024-05-09T00:17:06.000Z,83.06
2024-05-09T00:18:06.000Z,83.17
2024-05-09T00:19:06.000Z,82.63
2024-05-09T00:20:06.000Z,82.92
2024-05-09T00:21:07.000Z,83.31
2024-05-09T00:22:06.000Z,83.00
2024-05-09T00:23:09.000Z,82.61
2024-05-09T00:24:05.000Z,82.71
2024-05-09T00:25:07.000Z,82.46
2024-05-09T00:26:06.000Z,82.47
2024-05-09T00:27:05.000Z,82.47
2024-05-09T00:28:06.000Z,82.37
2024-05-09T00:29:06.000Z,82.74
2024-05-09T00:30:07.000Z,82.00
2024-05-09T00:31:05.000Z,82.71
2024-05-09T00:32:06.000Z,82.61
2024-05-09T00:33:06.000Z,82.80
2024-05-09T00:34:06.000Z,83.05
2024-05-09T00:35:06.000Z,83.11
2024-05-09T00:36:06.000Z,82.67
2024-05-09T00:37:05.000Z,83.01
2024-05-09T00:38:06.000Z,83.11
2024-05-09T00:39:06.000Z,82.86
2024-05-09T00:40:06.000Z,82.80
2024-05-09T00:41:06.000Z,82.93
2024-05-09T00:42:06.000Z,82.91
2024-05-09T00:43:06.000Z,82.58
2024-05-09T00:44:06.000Z,82.74
2024-05-09T00:45:06.000Z,82.97
2024-05-09T00:46:08.000Z,82.95
2024-05-09T00:47:07.000Z,82.43
2024-05-09T00:48:08.000Z,82.94
2024-05-09T00:49:07.000Z,82.75
2024-05-09T00:50:06.000Z,82.57
2024-05-09T00:51:06.000Z,82.67
2024-05-09T00:52:06.000Z,82.66
2024-05-09T00:53:08.000Z,83.46
2024-05-09T00:54:06.000Z,84.37
2024-05-09T00:55:06.000Z,83.92
2024-05-09T00:56:07.000Z,83.43
2024-05-09T00:57:06.000Z,83.13
2024-05-09T00:58:08.000Z,83.22
2024-05-09T00:59:06.000Z,83.79
2024-05-09T01:00:09.000Z,83.63
2024-05-09T01:01:06.000Z,83.89
2024-05-09T01:02:06.000Z,83.46
2024-05-09T01:03:06.000Z,83.28
2024-05-09T01:04:06.000Z,83.46
2024-05-09T01:05:06.000Z,83.69
2024-05-09T01:06:06.000Z,84.31
2024-05-09T01:07:06.000Z,84.29
2024-05-09T01:08:06.000Z,83.73
2024-05-09T01:09:06.000Z,83.69
2024-05-09T01:10:06.000Z,83.65
2024-05-09T01:11:06.000Z,84.06
2024-05-09T01:12:06.000Z,83.69
2024-05-09T01:13:06.000Z,83.88
2024-05-09T01:14:06.000Z,84.13
2024-05-09T01:15:06.000Z,83.72
2024-05-09T01:16:06.000Z,83.50
2024-05-09T01:17:06.000Z,83.91
2024-05-09T01:18:08.000Z,83.98
2024-05-09T01:19:18.000Z,84.16
2024-05-09T01:20:06.000Z,84.40
2024-05-09T01:21:08.000Z,84.10
2024-05-09T01:22:06.000Z,84.40
2024-05-09T01:23:06.000Z,83.93
2024-05-09T01:24:06.000Z,83.83
2024-05-09T01:25:06.000Z,83.63
2024-05-09T01:26:06.000Z,83.58
2024-05-09T01:27:06.000Z,83.49
2024-05-09T01:28:06.000Z,83.48
2024-05-09T01:29:06.000Z,83.59
2024-05-09T01:30:06.000Z,83.39
2024-05-09T01:31:05.000Z,83.89
2024-05-09T01:32:05.000Z,83.55
2024-05-09T01:33:06.000Z,83.92
2024-05-09T01:34:05.000Z,84.24
2024-05-09T01:35:05.000Z,83.80
2024-05-09T01:36:05.000Z,83.69
2024-05-09T01:37:05.000Z,83.49
2024-05-09T01:38:06.000Z,83.36
2024-05-09T01:39:05.000Z,83.28
2024-05-09T01:40:06.000Z,83.19
2024-05-09T01:41:05.000Z,83.11
2024-05-09T01:42:05.000Z,83.10
2024-05-09T01:43:06.000Z,83.14
2024-05-09T01:44:05.000Z,83.27
2024-05-09T01:45:09.000Z,83.22
2024-05-09T01:46:11.000Z,83.22
2024-05-09T01:47:05.000Z,83.24
2024-05-09T01:48:07.000Z,83.10
2024-05-09T01:49:06.000Z,83.37
2024-05-09T01:50:06.000Z,83.21
2024-05-09T01:51:05.000Z,83.42
2024-05-09T01:52:05.000Z,83.56
2024-05-09T01:53:07.000Z,83.26
2024-05-09T01:54:05.000Z,83.08
2024-05-09T01:55:06.000Z,83.35
2024-05-09T01:56:06.000Z,83.47
2024-05-09T01:57:06.000Z,83.26
2024-05-09T01:58:06.000Z,83.05
2024-05-09T01:59:06.000Z,83.51
2024-05-09T02:00:06.000Z,83.43
2024-05-09T02:01:05.000Z,83.26
2024-05-09T02:02:05.000Z,83.38
2024-05-09T02:03:07.000Z,83.44
2024-05-09T02:04:05.000Z,83.41
2024-05-09T02:05:06.000Z,83.14
2024-05-09T02:06:05.000Z,83.13
2024-05-09T02:07:05.000Z,83.24
2024-05-09T02:08:12.000Z,82.98
2024-05-09T02:09:06.000Z,83.00
2024-05-09T02:10:05.000Z,82.98
2024-05-09T02:11:07.000Z,83.39
2024-05-09T02:12:05.000Z,83.29
2024-05-09T02:13:08.000Z,83.42
2024-05-09T02:14:05.000Z,83.16
2024-05-09T02:15:06.000Z,83.08
2024-05-09T02:16:09.000Z,83.92
2024-05-09T02:17:05.000Z,83.79
2024-05-09T02:18:06.000Z,83.46
2024-05-09T02:19:05.000Z,83.42
2024-05-09T02:20:06.000Z,83.96
2024-05-09T02:21:07.000Z,84.15
2024-05-09T02:22:05.000Z,83.89
2024-05-09T02:23:06.000Z,83.62
2024-05-09T02:24:05.000Z,83.97
2024-05-09T02:25:05.000Z,84.08
2024-05-09T02:26:05.000Z,83.87
2024-05-09T02:27:05.000Z,83.83
2024-05-09T02:28:05.000Z,84.10
2024-05-09T02:29:05.000Z,84.43
2024-05-09T02:30:06.000Z,84.34
2024-05-09T02:31:06.000Z,84.27
2024-05-09T02:32:06.000Z,83.97
2024-05-09T02:33:06.000Z,83.87
2024-05-09T02:34:06.000Z,84.43
2024-05-09T02:35:06.000Z,84.40
2024-05-09T02:36:06.000Z,84.09
2024-05-09T02:37:06.000Z,84.15
2024-05-09T02:38:07.000Z,83.98
2024-05-09T02:39:06.000Z,84.46
2024-05-09T02:40:07.000Z,84.17
2024-05-09T02:41:07.000Z,84.39
2024-05-09T02:42:06.000Z,84.48
2024-05-09T02:43:06.000Z,84.31
2024-05-09T02:44:06.000Z,84.87
2024-05-09T02:45:06.000Z,84.68
2024-05-09T02:46:06.000Z,84.36
2024-05-09T02:47:06.000Z,84.35
2024-05-09T02:48:08.000Z,84.52
2024-05-09T02:49:06.000Z,84.65
2024-05-09T02:50:06.000Z,84.55
2024-05-09T02:51:06.000Z,85.15
2024-05-09T02:52:06.000Z,84.74
2024-05-09T02:53:06.000Z,84.83
2024-05-09T02:54:06.000Z,84.82
2024-05-09T02:55:06.000Z,84.54
2024-05-09T02:56:06.000Z,85.21
2024-05-09T02:57:06.000Z,85.06
2024-05-09T02:58:06.000Z,85.03
2024-05-09T02:59:06.000Z,85.37
2024-05-09T03:00:06.000Z,84.82
2024-05-09T03:01:06.000Z,85.30
2024-05-09T03:02:05.000Z,85.18
2024-05-09T03:03:06.000Z,85.01
2024-05-09T03:04:05.000Z,84.87
2024-05-09T03:05:05.000Z,84.69
2024-05-09T03:06:05.000Z,85.10
2024-05-09T03:07:05.000Z,85.08
2024-05-09T03:08:05.000Z,85.05
2024-05-09T03:09:08.000Z,85.26
2024-05-09T03:10:06.000Z,85.82
2024-05-09T03:11:05.000Z,85.99
2024-05-09T03:12:06.000Z,85.77
2024-05-09T03:13:06.000Z,85.54
2024-05-09T03:14:06.000Z,85.37
2024-05-09T03:15:06.000Z,85.03
2024-05-09T03:16:06.000Z,84.96
2024-05-09T03:17:06.000Z,85.01
2024-05-09T03:18:05.000Z,85.00
2024-05-09T03:19:05.000Z,84.97
2024-05-09T03:20:06.000Z,84.96
2024-05-09T03:21:06.000Z,84.76
2024-05-09T03:22:05.000Z,84.59
2024-05-09T03:23:06.000Z,84.65
2024-05-09T03:24:06.000Z,84.59
2024-05-09T03:25:06.000Z,84.57
2024-05-09T03:26:13.000Z,84.46
2024-05-09T03:27:05.000Z,84.54
2024-05-09T03:28:06.000Z,83.96
2024-05-09T03:29:05.000Z,84.03
2024-05-09T03:30:06.000Z,84.70
2024-05-09T03:31:07.000Z,84.31
2024-05-09T03:32:05.000Z,84.38
2024-05-09T03:33:08.000Z,84.52
2024-05-09T03:34:05.000Z,84.28
2024-05-09T03:35:06.000Z,84.31
2024-05-09T03:36:06.000Z,84.27
2024-05-09T03:37:06.000Z,84.25
2024-05-09T03:38:05.000Z,84.42
2024-05-09T03:39:08.000Z,85.01
2024-05-09T03:40:07.000Z,84.91
2024-05-09T03:41:06.000Z,84.57
2024-05-09T03:42:05.000Z,84.84
2024-05-09T03:43:05.000Z,84.85
2024-05-09T03:44:06.000Z,84.71
2024-05-09T03:45:06.000Z,84.41
2024-05-09T03:46:05.000Z,84.60
2024-05-09T03:47:05.000Z,84.64
2024-05-09T03:48:06.000Z,84.37
2024-05-09T03:49:06.000Z,84.28
2024-05-09T03:50:06.000Z,84.92
2024-05-09T03:51:05.000Z,84.55
2024-05-09T03:52:05.000Z,84.55
2024-05-09T03:53:09.000Z,84.37
2024-05-09T03:54:05.000Z,84.36
2024-05-09T03:55:06.000Z,84.47
2024-05-09T03:56:06.000Z,84.65
2024-05-09T03:57:05.000Z,84.65
2024-05-09T03:58:07.000Z,84.53
2024-05-09T03:59:05.000Z,84.76
2024-05-09T04:00:07.000Z,84.60
2024-05-09T04:01:05.000Z,84.93
2024-05-09T04:02:05.000Z,84.43
2024-05-09T04:03:06.000Z,84.46
2024-05-09T04:04:07.000Z,85.30
2024-05-09T04:05:05.000Z,85.11
2024-05-09T04:06:06.000Z,84.83
2024-05-09T04:07:06.000Z,84.72
2024-05-09T04:08:06.000Z,84.99
2024-05-09T04:09:05.000Z,84.77
2024-05-09T04:10:06.000Z,84.82
2024-05-09T04:11:05.000Z,85.10
2024-05-09T04:12:06.000Z,84.82
2024-05-09T04:13:05.000Z,84.91
2024-05-09T04:14:05.000Z,85.13
2024-05-09T04:15:06.000Z,85.60
2024-05-09T04:16:08.000Z,85.13
2024-05-09T04:17:06.000Z,85.17
2024-05-09T04:18:06.000Z,85.21
2024-05-09T04:19:06.000Z,84.80
2024-05-09T04:20:06.000Z,84.72
2024-05-09T04:21:06.000Z,85.04
2024-05-09T04:22:06.000Z,85.13
2024-05-09T04:23:10.000Z,84.91
2024-05-09T04:24:06.000Z,84.67
2024-05-09T04:25:06.000Z,84.64
2024-05-09T04:26:07.000Z,84.73
2024-05-09T04:27:05.000Z,84.77
2024-05-09T04:28:06.000Z,84.72
2024-05-09T04:29:06.000Z,84.96
2024-05-09T04:30:06.000Z,84.97
2024-05-09T04:31:05.000Z,85.12
2024-05-09T04:32:06.000Z,85.30
2024-05-09T04:33:06.000Z,85.04
2024-05-09T04:34:05.000Z,84.71
2024-05-09T04:35:05.000Z,85.53
2024-05-09T04:36:05.000Z,86.04
2024-05-09T04:37:05.000Z,85.57
2024-05-09T04:38:06.000Z,85.44
2024-05-09T04:39:05.000Z,85.48
2024-05-09T04:40:06.000Z,85.74
2024-05-09T04:41:05.000Z,85.56
2024-05-09T04:42:05.000Z,85.33
2024-05-09T04:43:12.000Z,85.29
2024-05-09T04:44:05.000Z,85.25
2024-05-09T04:45:05.000Z,85.16
2024-05-09T04:46:05.000Z,85.45
2024-05-09T04:47:05.000Z,86.18
2024-05-09T04:48:06.000Z,85.82
2024-05-09T04:49:05.000Z,85.81
2024-05-09T04:50:05.000Z,85.54
2024-05-09T04:51:05.000Z,85.43
2024-05-09T04:52:05.000Z,85.43
2024-05-09T04:53:06.000Z,85.65
2024-05-09T04:54:05.000Z,85.95
2024-05-09T04:55:05.000Z,85.82
2024-05-09T04:56:05.000Z,85.72
2024-05-09T04:57:05.000Z,85.97
2024-05-09T04:58:08.000Z,86.04
2024-05-09T04:59:05.000Z,85.83
2024-05-09T05:00:06.000Z,85.75
2024-05-09T05:01:05.000Z,86.19
2024-05-09T05:02:05.000Z,86.62
2024-05-09T05:03:06.000Z,86.32
2024-05-09T05:04:05.000Z,86.41
2024-05-09T05:05:05.000Z,86.39
2024-05-09T05:06:06.000Z,86.36
2024-05-09T05:07:05.000Z,86.41
2024-05-09T05:08:14.000Z,86.40
2024-05-09T05:09:05.000Z,86.14
2024-05-09T05:10:06.000Z,86.10
2024-05-09T05:11:05.000Z,86.07
2024-05-09T05:12:20.000Z,86.33
2024-05-09T05:13:10.000Z,86.40
2024-05-09T05:14:05.000Z,86.41
2024-05-09T05:15:06.000Z,86.52
2024-05-09T05:16:05.000Z,86.41
2024-05-09T05:17:05.000Z,86.18
2024-05-09T05:18:05.000Z,86.47
2024-05-09T05:19:05.000Z,86.32
2024-05-09T05:20:06.000Z,86.21
2024-05-09T05:21:05.000Z,86.75
2024-05-09T05:22:05.000Z,86.69
2024-05-09T05:23:09.000Z,86.70
2024-05-09T05:24:05.000Z,86.68
2024-05-09T05:25:05.000Z,86.79
2024-05-09T05:26:05.000Z,86.66
2024-05-09T05:27:05.000Z,86.53
2024-05-09T05:28:06.000Z,86.90
2024-05-09T05:29:05.000Z,86.69
2024-05-09T05:30:06.000Z,87.33
2024-05-09T05:31:05.000Z,86.86
2024-05-09T05:32:05.000Z,86.73
2024-05-09T05:33:08.000Z,87.10
2024-05-09T05:34:05.000Z,86.95
2024-05-09T05:35:05.000Z,87.05
2024-05-09T05:36:06.000Z,87.14
2024-05-09T05:37:05.000Z,87.19
2024-05-09T05:38:06.000Z,86.83
2024-05-09T05:39:05.000Z,86.80
2024-05-09T05:40:06.000Z,86.76
2024-05-09T05:41:05.000Z,86.86
2024-05-09T05:42:05.000Z,86.75
2024-05-09T05:43:14.000Z,87.18
2024-05-09T05:44:05.000Z,87.08
2024-05-09T05:45:06.000Z,87.03
2024-05-09T05:46:05.000Z,87.36
2024-05-09T05:47:05.000Z,87.68
2024-05-09T05:48:06.000Z,87.23
2024-05-09T05:49:05.000Z,87.42
2024-05-09T05:50:05.000Z,87.65
2024-05-09T05:51:06.000Z,87.96
2024-05-09T05:52:05.000Z,88.11
2024-05-09T05:53:05.000Z,87.94
2024-05-09T05:54:05.000Z,88.28
2024-05-09T05:55:05.000Z,89.17
2024-05-09T05:56:06.000Z,88.69
2024-05-09T05:57:05.000Z,88.60
2024-05-09T05:58:09.000Z,88.53
2024-05-09T05:59:05.000Z,88.22
2024-05-09T06:00:06.000Z,88.82
2024-05-09T06:01:05.000Z,88.71
2024-05-09T06:02:06.000Z,89.44
2024-05-09T06:03:06.000Z,89.30
2024-05-09T06:04:05.000Z,89.47
2024-05-09T06:05:06.000Z,89.77
2024-05-09T06:06:06.000Z,89.29
2024-05-09T06:07:06.000Z,89.06
2024-05-09T06:08:06.000Z,89.44
2024-05-09T06:09:06.000Z,89.97
2024-05-09T06:10:06.000Z,89.78
2024-05-09T06:11:06.000Z,89.40
2024-05-09T06:12:06.000Z,89.61
2024-05-09T06:13:07.000Z,89.57
2024-05-09T06:14:06.000Z,89.76
2024-05-09T06:15:06.000Z,89.92
2024-05-09T06:16:06.000Z,90.01
2024-05-09T06:17:06.000Z,90.14
2024-05-09T06:18:07.000Z,89.72
2024-05-09T06:19:06.000Z,89.41
2024-05-09T06:20:06.000Z,89.59
2024-05-09T06:21:06.000Z,89.20
2024-05-09T06:22:08.000Z,89.66
2024-05-09T06:23:06.000Z,89.69
2024-05-09T06:24:06.000Z,89.22
2024-05-09T06:25:06.000Z,89.37
2024-05-09T06:26:06.000Z,89.66
2024-05-09T06:27:06.000Z,89.34
2024-05-09T06:28:06.000Z,89.16
2024-05-09T06:29:06.000Z,89.39
2024-05-09T06:30:06.000Z,89.02
2024-05-09T06:31:06.000Z,88.92
2024-05-09T06:32:06.000Z,89.55
2024-05-09T06:33:07.000Z,89.34
2024-05-09T06:34:05.000Z,89.77
2024-05-09T06:35:06.000Z,89.70
2024-05-09T06:36:06.000Z,90.18
2024-05-09T06:37:06.000Z,90.28
2024-05-09T06:38:07.000Z,90.30
2024-05-09T06:39:06.000Z,90.47
2024-05-09T06:40:06.000Z,90.33
2024-05-09T06:41:06.000Z,90.07
2024-05-09T06:42:06.000Z,90.09
2024-05-09T06:43:13.000Z,90.37
2024-05-09T06:44:06.000Z,89.96
2024-05-09T06:45:06.000Z,89.61
2024-05-09T06:46:06.000Z,89.59
2024-05-09T06:47:06.000Z,89.67
2024-05-09T06:48:07.000Z,89.91
2024-05-09T06:49:08.000Z,89.94
2024-05-09T06:50:06.000Z,89.62
2024-05-09T06:51:06.000Z,89.49
2024-05-09T06:52:06.000Z,89.72
2024-05-09T06:53:06.000Z,89.32
2024-05-09T06:54:06.000Z,89.46
2024-05-09T06:55:06.000Z,89.37
2024-05-09T06:56:06.000Z,89.08
2024-05-09T06:57:06.000Z,89.32
2024-05-09T06:58:06.000Z,89.62
2024-05-09T06:59:06.000Z,89.60
2024-05-09T07:00:07.000Z,88.95
2024-05-09T07:01:06.000Z,89.79
2024-05-09T07:02:06.000Z,90.37
2024-05-09T07:03:10.000Z,90.46
2024-05-09T07:04:06.000Z,90.12
2024-05-09T07:05:06.000Z,89.99
2024-05-09T07:06:06.000Z,89.68
2024-05-09T07:07:08.000Z,89.57
2024-05-09T07:08:06.000Z,89.44
2024-05-09T07:09:06.000Z,89.25
2024-05-09T07:10:06.000Z,88.64
2024-05-09T07:11:06.000Z,87.66
2024-05-09T07:12:06.000Z,87.68
2024-05-09T07:13:10.000Z,87.99
2024-05-09T07:14:06.000Z,87.93
2024-05-09T07:15:06.000Z,87.49
2024-05-09T07:16:06.000Z,87.15
2024-05-09T07:17:06.000Z,87.10
2024-05-09T07:18:11.000Z,87.37
2024-05-09T07:19:06.000Z,88.02
2024-05-09T07:20:06.000Z,87.80
2024-05-09T07:21:07.000Z,86.83
2024-05-09T07:22:05.000Z,85.62
2024-05-09T07:23:09.000Z,85.18
2024-05-09T07:24:05.000Z,85.57
2024-05-09T07:25:06.000Z,85.65
2024-05-09T07:26:06.000Z,85.66
2024-05-09T07:27:06.000Z,84.88
2024-05-09T07:28:23.000Z,84.30
2024-05-09T07:29:05.000Z,84.06
2024-05-09T07:30:07.000Z,84.04
2024-05-09T07:31:05.000Z,84.28
2024-05-09T07:32:06.000Z,83.88
2024-05-09T07:33:06.000Z,83.04
2024-05-09T07:34:06.000Z,83.25
2024-05-09T07:35:05.000Z,83.50
2024-05-09T07:36:06.000Z,83.11
2024-05-09T07:37:12.000Z,82.01
2024-05-09T07:38:05.000Z,81.49
2024-05-09T07:39:05.000Z,81.92
2024-05-09T07:40:07.000Z,82.43
2024-05-09T07:41:05.000Z,82.90
2024-05-09T07:42:06.000Z,82.88
2024-05-09T07:43:06.000Z,82.91
2024-05-09T07:44:05.000Z,83.36
2024-05-09T07:45:06.000Z,83.94
2024-05-09T07:46:06.000Z,84.25
2024-05-09T07:46:06.000Z,84.25
2024-05-09T07:46:06.000Z,84.25
2024-05-09T07:46:06.000Z,84.25
2024-05-09T07:46:06.000Z,84.25
2024-05-09T07:46:06.000Z,84.25
2024-05-09T07:46:06.000Z,84.25
2024-05-09T07:46:06.000Z,84.25
2024-05-09T07:46:06.000Z,84.25
2024-05-09T07:47:38.000Z,83.63
2024-05-09T07:47:38.000Z,83.63
2024-05-09T07:47:38.000Z,83.63
2024-05-09T07:47:38.000Z,83.63
2024-05-09T07:47:38.000Z,83.63
2024-05-09T07:47:38.000Z,83.63
2024-05-09T07:47:38.000Z,83.63
2024-05-09T07:48:35.000Z,83.69
2024-05-09T07:48:35.000Z,83.69
2024-05-09T07:48:35.000Z,83.69
2024-05-09T07:48:35.000Z,83.69
2024-05-09T07:48:35.000Z,83.69
2024-05-09T07:49:35.000Z,83.45
2024-05-09T07:49:35.000Z,83.45
2024-05-09T07:49:35.000Z,83.45
2024-05-09T07:49:35.000Z,83.45
2024-05-09T07:54:05.000Z,82.19
2024-05-09T07:55:06.000Z,80.79
2024-05-09T07:56:06.000Z,81.56
2024-05-09T07:57:05.000Z,81.76
2024-05-09T07:58:05.000Z,81.52
2024-05-09T07:59:06.000Z,78.75
2024-05-09T08:00:06.000Z,77.47
2024-05-09T08:01:05.000Z,74.97
2024-05-09T08:02:06.000Z,74.42
2024-05-09T08:03:06.000Z,74.30
2024-05-09T08:04:05.000Z,73.98
2024-05-09T08:05:06.000Z,74.45
2024-05-09T08:06:05.000Z,74.56
2024-05-09T08:07:05.000Z,75.65
2024-05-09T08:08:06.000Z,75.96
2024-05-09T08:09:05.000Z,75.57
2024-05-09T08:10:06.000Z,75.88
2024-05-09T08:11:05.000Z,75.30
2024-05-09T08:12:11.000Z,76.12
2024-05-09T08:13:05.000Z,72.91
2024-05-09T08:14:05.000Z,72.15
2024-05-09T08:15:06.000Z,73.68
2024-05-09T08:16:06.000Z,74.40
2024-05-09T08:17:05.000Z,74.74
2024-05-09T08:18:06.000Z,74.28
2024-05-09T08:19:05.000Z,73.52
2024-05-09T08:20:06.000Z,72.65
2024-05-09T08:21:05.000Z,71.77
2024-05-09T08:22:06.000Z,72.19
2024-05-09T08:23:06.000Z,72.54
2024-05-09T08:24:05.000Z,71.95
2024-05-09T08:25:05.000Z,72.58
2024-05-09T08:26:06.000Z,71.91
2024-05-09T08:27:05.000Z,71.70
2024-05-09T08:28:05.000Z,70.71
2024-05-09T08:29:05.000Z,67.86
2024-05-09T08:30:06.000Z,67.87
2024-05-09T08:31:05.000Z,68.27
2024-05-09T08:32:06.000Z,67.28
2024-05-09T08:33:05.000Z,65.53
2024-05-09T08:34:05.000Z,65.35
2024-05-09T08:35:06.000Z,65.43
2024-05-09T08:36:05.000Z,66.10
2024-05-09T08:37:05.000Z,65.32
2024-05-09T08:38:05.000Z,64.80
2024-05-09T08:39:05.000Z,63.94
2024-05-09T08:40:06.000Z,64.06
2024-05-09T08:41:05.000Z,65.57
2024-05-09T08:42:06.000Z,65.33
2024-05-09T08:43:07.000Z,65.91
2024-05-09T08:44:05.000Z,66.35
2024-05-09T08:45:06.000Z,65.84
2024-05-09T08:46:07.000Z,64.36
2024-05-09T08:47:08.000Z,64.47
2024-05-09T08:48:06.000Z,64.67
2024-05-09T08:49:05.000Z,66.10
2024-05-09T08:50:06.000Z,64.67
2024-05-09T08:51:05.000Z,64.24
2024-05-09T08:52:06.000Z,64.42
2024-05-09T08:53:06.000Z,63.40
2024-05-09T08:54:05.000Z,62.13
2024-05-09T08:55:06.000Z,61.54
2024-05-09T08:56:08.000Z,60.54
2024-05-09T08:57:06.000Z,61.72
2024-05-09T08:58:07.000Z,62.42
2024-05-09T08:59:09.000Z,60.90
2024-05-09T09:00:06.000Z,59.72
2024-05-09T09:01:06.000Z,60.24
2024-05-09T09:02:11.000Z,60.04
2024-05-09T09:03:07.000Z,59.20
2024-05-09T09:04:08.000Z,58.36
2024-05-09T09:05:09.000Z,58.81
2024-05-09T09:06:09.000Z,57.00
2024-05-09T09:07:05.000Z,57.03
2024-05-09T09:08:06.000Z,57.12
2024-05-09T09:09:07.000Z,56.83
2024-05-09T09:10:06.000Z,55.22
2024-05-09T09:11:05.000Z,56.89
2024-05-09T09:12:06.000Z,56.44
2024-05-09T09:13:07.000Z,58.00
2024-05-09T09:14:05.000Z,57.99
2024-05-09T09:15:05.000Z,58.16
2024-05-09T09:16:06.000Z,57.98
2024-05-09T09:17:14.000Z,59.10
2024-05-09T09:18:05.000Z,57.28
2024-05-09T09:19:05.000Z,56.39
2024-05-09T09:20:06.000Z,56.26
2024-05-09T09:21:09.000Z,56.75
2024-05-09T09:22:05.000Z,55.90
2024-05-09T09:23:06.000Z,57.00
2024-05-09T09:24:07.000Z,55.69
2024-05-09T09:25:06.000Z,54.14
2024-05-09T09:26:05.000Z,55.11
2024-05-09T09:27:06.000Z,55.26
2024-05-09T09:28:06.000Z,55.53
2024-05-09T09:29:05.000Z,55.05
2024-05-09T09:30:06.000Z,53.90
2024-05-09T09:31:05.000Z,54.36
2024-05-09T09:32:07.000Z,53.94
2024-05-09T09:33:08.000Z,53.84
2024-05-09T09:34:07.000Z,53.99
2024-05-09T09:35:06.000Z,53.84
2024-05-09T09:36:06.000Z,53.24
2024-05-09T09:37:07.000Z,53.28
2024-05-09T09:38:06.000Z,54.76
2024-05-09T09:39:06.000Z,53.29
2024-05-09T09:40:08.000Z,53.60
2024-05-09T09:41:07.000Z,53.14
2024-05-09T09:42:06.000Z,52.92
2024-05-09T09:43:12.000Z,53.12
2024-05-09T09:44:07.000Z,52.94
2024-05-09T09:45:06.000Z,53.30
2024-05-09T09:46:07.000Z,52.73
2024-05-09T09:47:07.000Z,52.21
2024-05-09T09:48:07.000Z,53.42
2024-05-09T09:49:06.000Z,51.73
2024-05-09T09:50:06.000Z,51.90
2024-05-09T09:51:06.000Z,51.26
2024-05-09T09:52:06.000Z,51.50
2024-05-09T09:53:06.000Z,50.78
2024-05-09T09:54:07.000Z,51.52
2024-05-09T09:55:08.000Z,51.39
2024-05-09T09:56:08.000Z,51.44
2024-05-09T09:57:05.000Z,51.62
2024-05-09T09:58:05.000Z,50.68
2024-05-09T09:59:08.000Z,50.25
2024-05-09T10:00:08.000Z,50.50
2024-05-09T10:01:05.000Z,50.22
2024-05-09T10:02:05.000Z,51.43
2024-05-09T10:03:05.000Z,51.10
2024-05-09T10:04:06.000Z,52.48
2024-05-09T10:05:06.000Z,52.83
2024-05-09T10:06:07.000Z,52.83
2024-05-09T10:07:07.000Z,51.43
2024-05-09T10:08:07.000Z,48.14
2024-05-09T10:09:06.000Z,46.46
2024-05-09T10:10:06.000Z,47.37
2024-05-09T10:11:05.000Z,49.33
2024-05-09T10:12:11.000Z,49.25
2024-05-09T10:13:06.000Z,48.15
2024-05-09T10:14:08.000Z,48.14
2024-05-09T10:15:09.000Z,46.62
2024-05-09T10:16:08.000Z,46.72
2024-05-09T10:17:05.000Z,46.60
2024-05-09T10:18:05.000Z,46.43
2024-05-09T10:19:05.000Z,45.77
2024-05-09T10:20:06.000Z,45.81
2024-05-09T10:21:13.000Z,46.93
2024-05-09T10:22:07.000Z,47.73
2024-05-09T10:23:24.000Z,46.40
2024-05-09T10:24:05.000Z,46.09
2024-05-09T10:25:06.000Z,46.01
2024-05-09T10:26:05.000Z,44.88
2024-05-09T10:27:05.000Z,45.71
2024-05-09T10:28:10.000Z,46.83
2024-05-09T10:29:13.000Z,47.15
2024-05-09T10:30:06.000Z,47.22
2024-05-09T10:31:10.000Z,47.18
2024-05-09T10:32:06.000Z,48.30
2024-05-09T10:33:09.000Z,48.02
2024-05-09T10:34:05.000Z,46.12
2024-05-09T10:35:07.000Z,46.18
2024-05-09T10:36:16.000Z,45.29
2024-05-09T10:37:05.000Z,45.47
2024-05-09T10:38:06.000Z,46.04
2024-05-09T10:39:05.000Z,44.16
2024-05-09T10:40:06.000Z,45.47
2024-05-09T10:41:06.000Z,44.61
2024-05-09T10:42:08.000Z,45.52
2024-05-09T10:43:05.000Z,45.69
2024-05-09T10:44:14.000Z,45.19
2024-05-09T10:45:06.000Z,46.02
2024-05-09T10:46:05.000Z,45.76
2024-05-09T10:47:05.000Z,45.89
2024-05-09T10:48:06.000Z,45.84
2024-05-09T10:49:06.000Z,45.56
2024-05-09T10:50:05.000Z,45.32
2024-05-09T10:51:06.000Z,46.65
2024-05-09T10:52:06.000Z,46.41
2024-05-09T10:53:05.000Z,44.78
2024-05-09T10:54:09.000Z,46.28
2024-05-09T10:55:05.000Z,46.51
2024-05-09T10:56:05.000Z,45.22
2024-05-09T10:57:05.000Z,45.44
2024-05-09T10:58:15.000Z,44.81
2024-05-09T10:59:05.000Z,44.92
2024-05-09T11:00:06.000Z,43.50
2024-05-09T11:01:06.000Z,42.60
2024-05-09T11:02:06.000Z,42.38
2024-05-09T11:03:09.000Z,43.04
2024-05-09T11:04:06.000Z,41.93
2024-05-09T11:05:07.000Z,41.95
2024-05-09T11:06:05.000Z,41.99
2024-05-09T11:07:11.000Z,42.99
2024-05-09T11:08:05.000Z,42.93
2024-05-09T11:09:05.000Z,42.80
2024-05-09T11:10:06.000Z,43.21
2024-05-09T11:11:06.000Z,43.72
2024-05-09T11:12:05.000Z,43.23
2024-05-09T11:13:05.000Z,42.69
2024-05-09T11:14:10.000Z,42.51
2024-05-09T11:15:05.000Z,42.44
2024-05-09T11:16:15.000Z,41.64
2024-05-09T11:17:06.000Z,42.13
2024-05-09T11:18:05.000Z,41.67
2024-05-09T11:19:12.000Z,41.54
2024-05-09T11:20:05.000Z,42.58
2024-05-09T11:21:10.000Z,42.82
2024-05-09T11:22:05.000Z,42.41
2024-05-09T11:23:05.000Z,42.18
2024-05-09T11:24:05.000Z,43.52
2024-05-09T11:25:06.000Z,42.19
2024-05-09T11:26:05.000Z,42.08
2024-05-09T11:27:05.000Z,42.17
2024-05-09T11:28:05.000Z,42.41
2024-05-09T11:29:05.000Z,42.21
2024-05-09T11:30:15.000Z,42.67
2024-05-09T11:31:08.000Z,42.80
2024-05-09T11:32:06.000Z,42.08
2024-05-09T11:33:09.000Z,42.17
2024-05-09T11:34:05.000Z,43.13
2024-05-09T11:35:05.000Z,41.49
2024-05-09T11:36:06.000Z,40.83
2024-05-09T11:37:05.000Z,41.12
2024-05-09T11:38:05.000Z,42.23
2024-05-09T11:39:05.000Z,41.76
2024-05-09T11:40:06.000Z,41.82
2024-05-09T11:41:05.000Z,41.07
2024-05-09T11:42:05.000Z,40.94
2024-05-09T11:43:05.000Z,39.55
2024-05-09T11:44:05.000Z,40.22
2024-05-09T11:45:06.000Z,39.91
2024-05-09T11:46:05.000Z,40.73
2024-05-09T11:47:05.000Z,41.06
2024-05-09T11:48:06.000Z,40.60
2024-05-09T11:49:06.000Z,40.49
2024-05-09T11:50:05.000Z,40.29
2024-05-09T11:51:05.000Z,40.48
2024-05-09T11:52:05.000Z,40.75
2024-05-09T11:53:05.000Z,40.59
2024-05-09T11:54:05.000Z,40.60
2024-05-09T11:55:06.000Z,41.59
2024-05-09T11:56:06.000Z,41.22
2024-05-09T11:57:05.000Z,40.62
2024-05-09T11:58:05.000Z,40.49
2024-05-09T11:59:05.000Z,41.60
2024-05-09T12:00:06.000Z,40.85
2024-05-09T12:01:05.000Z,40.79
2024-05-09T12:02:05.000Z,41.61
2024-05-09T12:03:05.000Z,41.12
2024-05-09T12:04:05.000Z,42.03
2024-05-09T12:05:05.000Z,40.16
2024-05-09T12:06:05.000Z,40.88
2024-05-09T12:07:05.000Z,40.02
2024-05-09T12:08:06.000Z,40.71
2024-05-09T12:09:05.000Z,39.14
2024-05-09T12:10:06.000Z,38.63
2024-05-09T12:11:05.000Z,39.65
2024-05-09T12:12:05.000Z,38.92
2024-05-09T12:13:05.000Z,38.24
2024-05-09T12:14:06.000Z,38.75
2024-05-09T12:15:06.000Z,40.05
2024-05-09T12:16:05.000Z,38.19
2024-05-09T12:17:05.000Z,39.23
2024-05-09T12:18:05.000Z,39.42
2024-05-09T12:19:05.000Z,39.55
2024-05-09T12:20:06.000Z,39.46
2024-05-09T12:21:05.000Z,39.32
2024-05-09T12:22:05.000Z,39.30
2024-05-09T12:23:06.000Z,39.48
2024-05-09T12:24:05.000Z,40.31
2024-05-09T12:25:06.000Z,39.96
2024-05-09T12:26:05.000Z,40.35
2024-05-09T12:27:05.000Z,40.35
2024-05-09T12:28:06.000Z,39.75
2024-05-09T12:29:05.000Z,38.95
2024-05-09T12:30:08.000Z,39.05
2024-05-09T12:31:05.000Z,40.11
2024-05-09T12:32:05.000Z,39.52
2024-05-09T12:33:09.000Z,38.69
2024-05-09T12:34:05.000Z,39.38
2024-05-09T12:35:05.000Z,39.10